Time;durP1;ratioP1;P1;durP2;ratioP2;P2;SDS_P1;SDS_P2;PMS_P1;PMS_P2;Temp;Humidity;BMP_temperature;BMP_pressure;BME280_temperature;BME280_humidity;BME280_pressure;Samples;Min_cycle;Max_cycle;Signal;HPM_P1;HPM_P2
2023/07/19 00:01:10;;;;;;;7.60;6.60;;;23.80;54.80;;;;;;20574;6822;306098;-76
2023/07/19 00:03:34;;;;;;;6.10;5.70;;;24.00;54.40;;;;;;20779;6822;117447;-76
2023/07/19 00:06:00;;;;;;;6.17;5.67;;;23.80;54.40;;;;;;20789;6822;118659;-77
2023/07/19 00:08:26;;;;;;;6.90;6.30;;;23.20;55.20;;;;;;20761;6822;123344;-75
2023/07/19 00:10:51;;;;;;;6.50;5.80;;;23.20;55.10;;;;;;20786;6822;118606;-77
2023/07/19 00:13:17;;;;;;;7.00;6.30;;;23.00;55.50;;;;;;20794;6822;120713;-76
2023/07/19 00:15:42;;;;;;;6.50;5.90;;;22.80;55.70;;;;;;20792;6822;122878;-76
2023/07/19 00:18:08;;;;;;;6.53;5.87;;;22.70;56.00;;;;;;20774;6822;120876;-76
2023/07/19 00:20:34;;;;;;;6.10;5.60;;;22.60;56.10;;;;;;20791;6822;117750;-75
2023/07/19 00:22:59;;;;;;;6.90;6.30;;;22.50;56.10;;;;;;20788;6822;118261;-76
2023/07/19 00:25:25;;;;;;;7.17;6.50;;;22.50;56.30;;;;;;20567;6822;305370;-75
2023/07/19 00:27:50;;;;;;;7.97;6.53;;;22.70;56.90;;;;;;20580;6822;281638;-75
2023/07/19 00:30:18;;;;;;;6.80;6.10;;;23.10;55.90;;;;;;20764;6822;119399;-75
2023/07/19 00:32:43;;;;;;;6.90;6.30;;;23.00;55.80;;;;;;20785;6822;121568;-75
2023/07/19 00:35:10;;;;;;;6.67;6.17;;;22.80;56.00;;;;;;20579;6820;281618;-75
2023/07/19 00:37:36;;;;;;;6.63;6.13;;;22.90;56.50;;;;;;20789;6821;119606;-76
2023/07/19 00:40:03;;;;;;;6.40;5.90;;;22.60;56.40;;;;;;20771;6821;123010;-75
2023/07/19 00:42:30;;;;;;;6.30;5.80;;;22.60;56.40;;;;;;20788;6822;117208;-76
2023/07/19 00:44:55;;;;;;;6.10;5.67;;;22.40;56.60;;;;;;20788;6822;117028;-76
2023/07/19 00:47:23;;;;;;;6.33;5.93;;;22.30;56.70;;;;;;20783;6822;117725;-75
2023/07/19 00:49:48;;;;;;;6.63;6.13;;;22.20;56.90;;;;;;20783;6822;116978;-75
2023/07/19 00:52:15;;;;;;;6.83;6.20;;;22.00;57.30;;;;;;20765;6822;117386;-75
2023/07/19 00:54:40;;;;;;;6.50;6.00;;;22.00;57.30;;;;;;20783;6822;118122;-75
2023/07/19 00:57:07;;;;;;;7.50;6.80;;;22.30;58.00;;;;;;20575;6822;306099;-76
2023/07/19 00:59:32;;;;;;;7.20;6.57;;;22.30;57.90;;;;;;20560;6822;307335;-75
2023/07/19 01:01:58;;;;;;;7.57;6.80;;;22.80;57.20;;;;;;20571;6822;279335;-75
2023/07/19 01:04:25;;;;;;;7.67;6.87;;;23.20;56.50;;;;;;20558;6822;307000;-76
2023/07/19 01:06:49;;;;;;;6.50;5.97;;;23.40;55.70;;;;;;20768;6822;116930;-76
2023/07/19 01:09:14;;;;;;;6.37;5.87;;;23.30;55.60;;;;;;20783;6822;117584;-76
2023/07/19 01:11:41;;;;;;;7.87;6.90;;;23.00;55.60;;;;;;20564;6822;311015;-75
2023/07/19 01:14:07;;;;;;;6.73;5.97;;;23.10;56.00;;;;;;20756;6822;117728;-76
2023/07/19 01:16:35;;;;;;;6.90;6.40;;;23.10;56.00;;;;;;20568;6822;296368;-77
2023/07/19 01:19:02;;;;;;;6.07;5.67;;;23.00;55.90;;;;;;20767;6822;118096;-76
2023/07/19 01:21:28;;;;;;;7.00;6.50;;;23.10;56.10;;;;;;20569;6822;277046;-76
2023/07/19 01:23:54;;;;;;;7.07;6.43;;;23.00;56.00;;;;;;20563;6822;307275;-75
2023/07/19 01:27:12;;;;;;;6.93;6.40;;;23.30;55.60;;;;;;20768;6822;118261;-76
2023/07/19 01:29:38;;;;;;;6.50;5.80;;;23.20;55.50;;;;;;20775;6822;117135;-76
2023/07/19 01:32:04;;;;;;;6.97;5.53;;;22.80;55.80;;;;;;20772;6822;124536;-78
2023/07/19 01:34:29;;;;;;;7.43;6.73;;;22.50;56.20;;;;;;20569;6822;320686;-76
2023/07/19 01:36:55;;;;;;;7.22;6.62;;;22.70;56.80;;;;;;20565;6822;306038;-76
2023/07/19 01:39:20;;;;;;;6.80;6.30;;;23.10;56.30;;;;;;20779;6822;117074;-75
2023/07/19 01:41:47;;;;;;;7.70;7.10;;;23.10;56.10;;;;;;20570;6822;281558;-75
2023/07/19 01:44:12;;;;;;;8.50;6.20;;;23.10;56.10;;;;;;20761;6822;120515;-76
2023/07/19 01:46:39;;;;;;;7.00;6.47;;;22.70;56.20;;;;;;20782;6820;117598;-76
2023/07/19 01:49:04;;;;;;;6.63;6.13;;;22.70;56.20;;;;;;20782;6821;119062;-77
2023/07/19 01:51:30;;;;;;;7.40;6.70;;;22.70;56.80;;;;;;20572;6821;306845;-76
2023/07/19 01:53:56;;;;;;;7.47;6.77;;;22.70;56.80;;;;;;20563;6822;307923;-76
2023/07/19 01:56:21;;;;;;;7.30;6.60;;;23.00;56.20;;;;;;20558;6822;407860;-76
2023/07/19 01:58:47;;;;;;;7.00;6.40;;;23.30;55.80;;;;;;20788;6822;117321;-75
2023/07/19 02:01:13;;;;;;;7.63;6.00;;;23.20;55.70;;;;;;20798;6822;117865;-76
2023/07/19 02:03:38;;;;;;;6.83;6.23;;;22.90;56.00;;;;;;20788;6822;116984;-77
2023/07/19 02:06:04;;;;;;;8.03;6.57;;;22.60;56.40;;;;;;20556;6822;281885;-76
2023/07/19 02:08:29;;;;;;;7.17;6.67;;;22.70;56.70;;;;;;20781;6822;124081;-76
2023/07/19 02:10:55;;;;;;;7.30;6.80;;;22.70;56.50;;;;;;20567;6822;304831;-79
2023/07/19 02:13:20;;;;;;;6.97;6.37;;;22.90;56.30;;;;;;20780;6822;123332;-76
2023/07/19 02:15:46;;;;;;;7.70;7.03;;;22.80;56.10;;;;;;20575;6822;289153;-75
2023/07/19 02:18:12;;;;;;;7.85;7.25;;;22.90;56.30;;;;;;20556;6822;335476;-75
2023/07/19 02:20:38;;;;;;;6.60;6.20;;;23.20;55.80;;;;;;20777;6822;120429;-76
2023/07/19 02:23:03;;;;;;;7.75;7.05;;;23.10;55.80;;;;;;20553;6822;306836;-76
2023/07/19 02:25:28;;;;;;;7.97;7.17;;;23.10;56.40;;;;;;20790;6822;119711;-76
2023/07/19 02:27:55;;;;;;;7.53;6.90;;;23.00;55.80;;;;;;20576;6822;306831;-76
2023/07/19 02:30:21;;;;;;;7.93;6.67;;;23.00;55.80;;;;;;20761;6822;120057;-76
2023/07/19 02:32:47;;;;;;;6.73;6.13;;;22.90;55.80;;;;;;20784;6822;117542;-75
2023/07/19 02:35:13;;;;;;;7.30;6.80;;;22.70;56.10;;;;;;20565;6822;311586;-76
2023/07/19 02:37:38;;;;;;;7.05;6.43;;;22.80;56.10;;;;;;20568;6822;277326;-76
2023/07/19 02:40:04;;;;;;;8.83;6.20;;;23.20;55.80;;;;;;20780;6822;117766;-78
2023/07/19 02:42:30;;;;;;;7.50;6.90;;;23.00;55.60;;;;;;20428;6822;276639;-75
2023/07/19 02:44:55;;;;;;;7.82;7.10;;;23.10;55.50;;;;;;20559;6822;342688;-75
2023/07/19 02:47:21;;;;;;;8.67;6.40;;;23.30;55.00;;;;;;20780;6822;117694;-76
2023/07/19 02:49:46;;;;;;;7.97;7.17;;;23.20;55.10;;;;;;20570;6822;306947;-75
2023/07/19 02:52:12;;;;;;;7.00;6.30;;;23.20;54.90;;;;;;20754;6822;118314;-75
2023/07/19 02:54:37;;;;;;;7.17;6.57;;;23.00;54.90;;;;;;20568;6822;277530;-76
2023/07/19 02:57:04;;;;;;;7.20;6.50;;;23.10;55.00;;;;;;20782;6820;120805;-75
2023/07/19 02:59:30;;;;;;;7.20;6.50;;;22.90;55.20;;;;;;20778;6821;117130;-76
2023/07/19 03:01:56;;;;;;;6.30;5.67;;;22.50;56.00;;;;;;20783;6821;116993;-75
2023/07/19 03:04:22;;;;;;;7.68;7.07;;;22.40;56.00;;;;;;20550;6822;336340;-78
2023/07/19 03:06:48;;;;;;;7.53;6.93;;;22.70;56.10;;;;;;20566;6822;281674;-76
2023/07/19 03:09:15;;;;;;;7.00;6.50;;;23.00;55.40;;;;;;20782;6822;123163;-76
2023/07/19 03:11:39;;;;;;;6.67;6.13;;;22.90;55.20;;;;;;20766;6822;121088;-76
2023/07/19 03:14:04;;;;;;;7.65;6.95;;;22.60;55.50;;;;;;20573;6822;300400;-79
2023/07/19 03:16:30;;;;;;;6.13;5.70;;;22.80;55.70;;;;;;20618;6822;117080;-76
2023/07/19 03:18:56;;;;;;;7.53;6.37;;;22.70;55.60;;;;;;20769;6822;120881;-76
2023/07/19 03:21:21;;;;;;;7.78;7.00;;;22.40;55.80;;;;;;20562;6822;314597;-75
2023/07/19 03:23:47;;;;;;;7.00;6.30;;;22.60;56.10;;;;;;20786;6822;117230;-76
2023/07/19 03:26:12;;;;;;;6.50;5.93;;;22.50;55.90;;;;;;20764;6822;120114;-76
2023/07/19 03:28:38;;;;;;;7.22;6.53;;;22.30;56.20;;;;;;20818;6822;117257;-74
2023/07/19 03:31:03;;;;;;;6.73;6.23;;;22.00;56.40;;;;;;20785;6822;119114;-74
2023/07/19 03:33:30;;;;;;;7.17;6.67;;;21.90;56.80;;;;;;20573;6822;278046;-74
2023/07/19 03:35:56;;;;;;;7.50;6.90;;;22.10;56.80;;;;;;20582;6822;277044;-73
2023/07/19 03:38:21;;;;;;;7.07;6.47;;;22.50;56.20;;;;;;20772;6822;119269;-74
2023/07/19 03:40:47;;;;;;;7.07;6.43;;;22.40;55.90;;;;;;20576;6822;305996;-73
2023/07/19 03:43:12;;;;;;;6.80;6.20;;;22.50;56.00;;;;;;20788;6822;120884;-73
2023/07/19 03:45:41;;;;;;;6.73;5.87;;;22.40;56.00;;;;;;20793;6822;117586;-77
2023/07/19 03:48:07;;;;;;;6.57;5.90;;;22.10;56.30;;;;;;20770;6822;118477;-75
2023/07/19 03:50:32;;;;;;;7.30;6.40;;;21.90;56.60;;;;;;20790;6822;117209;-75
2023/07/19 03:52:58;;;;;;;7.07;6.30;;;21.70;56.80;;;;;;20790;6822;117365;-75
2023/07/19 03:55:24;;;;;;;6.63;6.03;;;21.50;57.90;;;;;;20788;6822;117143;-75
2023/07/19 03:57:50;;;;;;;7.62;7.05;;;21.40;57.50;;;;;;20537;6822;322410;-75
2023/07/19 04:00:16;;;;;;;6.17;5.77;;;21.70;58.80;;;;;;20741;6822;129472;-75
2023/07/19 04:02:42;;;;;;;7.40;6.60;;;21.80;57.70;;;;;;20604;6822;276543;-79
2023/07/19 04:05:09;;;;;;;7.75;6.95;;;22.00;57.40;;;;;;20598;6822;305973;-76
2023/07/19 04:07:34;;;;;;;8.10;7.33;;;22.40;56.80;;;;;;20582;6822;306449;-75
2023/07/19 04:10:00;;;;;;;7.82;7.12;;;22.60;56.20;;;;;;20579;6820;306447;-76
2023/07/19 04:12:27;;;;;;;7.93;6.70;;;22.80;55.80;;;;;;20774;6821;120976;-75
2023/07/19 04:14:54;;;;;;;6.90;6.30;;;22.60;55.80;;;;;;20781;6821;119101;-77
2023/07/19 04:17:19;;;;;;;7.53;6.20;;;22.30;56.30;;;;;;20771;6822;117016;-77
2023/07/19 04:19:45;;;;;;;8.10;7.35;;;22.00;56.70;;;;;;20569;6822;321886;-77
2023/07/19 04:22:11;;;;;;;7.30;6.63;;;22.10;57.20;;;;;;20774;6822;119327;-77
2023/07/19 04:24:36;;;;;;;8.23;7.47;;;22.00;56.90;;;;;;20575;6822;306852;-77
2023/07/19 04:27:02;;;;;;;7.53;6.87;;;22.20;57.00;;;;;;20795;6822;117368;-78
2023/07/19 04:29:27;;;;;;;8.27;7.57;;;22.10;56.90;;;;;;20567;6822;306844;-76
2023/07/19 04:31:54;;;;;;;8.00;6.70;;;22.10;57.40;;;;;;20805;6822;117125;-78
2023/07/19 04:34:20;;;;;;;7.00;6.23;;;22.10;57.10;;;;;;20789;6822;117664;-77
2023/07/19 04:36:45;;;;;;;7.83;7.10;;;21.90;57.40;;;;;;20571;6822;277019;-78
2023/07/19 04:39:12;;;;;;;7.00;6.30;;;22.00;57.30;;;;;;20814;6822;120079;-77
2023/07/19 04:41:38;;;;;;;7.67;6.97;;;21.90;57.10;;;;;;20598;6822;305484;-78
2023/07/19 04:44:03;;;;;;;7.97;7.17;;;22.10;56.70;;;;;;20597;6822;277015;-76
2023/07/19 04:46:29;;;;;;;7.80;7.03;;;22.30;56.00;;;;;;20556;6822;310807;-77
2023/07/19 04:48:55;;;;;;;7.27;6.47;;;22.40;55.70;;;;;;20781;6822;117106;-75
2023/07/19 04:51:21;;;;;;;7.57;6.80;;;22.40;55.70;;;;;;20779;6822;119811;-76
2023/07/19 04:53:47;;;;;;;10.43;6.67;;;21.90;57.20;;;;;;20787;6822;117076;-76
2023/07/19 04:56:12;;;;;;;7.57;6.93;;;21.90;56.50;;;;;;20559;6822;307460;-77
2023/07/19 04:58:38;;;;;;;7.43;6.83;;;22.00;56.50;;;;;;20586;6822;306854;-77
2023/07/19 05:01:05;;;;;;;6.77;6.17;;;22.40;56.00;;;;;;20828;6822;116150;-77
2023/07/19 05:03:29;;;;;;;9.68;7.22;;;22.30;55.80;;;;;;20564;6822;310980;-77
2023/07/19 05:05:55;;;;;;;7.00;6.17;;;22.40;55.90;;;;;;20769;6822;117025;-76
2023/07/19 05:08:21;;;;;;;6.40;5.80;;;22.30;55.80;;;;;;20768;6822;120207;-76
2023/07/19 05:10:47;;;;;;;7.70;6.18;;;22.20;56.10;;;;;;20792;6822;117458;-76
2023/07/19 05:13:12;;;;;;;8.80;5.75;;;22.00;56.40;;;;;;20812;6822;117103;-76
2023/07/19 05:15:38;;;;;;;6.33;5.90;;;21.90;56.60;;;;;;20809;6822;117033;-75
2023/07/19 05:18:03;;;;;;;7.57;6.93;;;21.80;56.70;;;;;;20544;6822;279014;-75
2023/07/19 05:20:29;;;;;;;7.37;6.77;;;22.00;56.20;;;;;;20545;6820;336326;-76
2023/07/19 05:22:56;;;;;;;6.87;6.10;;;22.40;55.20;;;;;;20786;6821;117529;-76
2023/07/19 05:25:22;;;;;;;9.17;5.90;;;22.50;55.10;;;;;;20743;6821;118181;-75
2023/07/19 05:27:47;;;;;;;7.45;6.12;;;22.30;55.40;;;;;;20769;6822;120096;-74
2023/07/19 05:30:13;;;;;;;8.38;7.40;;;22.10;55.60;;;;;;20569;6822;299593;-77
2023/07/19 05:32:38;;;;;;;7.90;7.20;;;22.40;55.50;;;;;;20601;6822;341069;-77
2023/07/19 05:35:05;;;;;;;7.10;6.47;;;22.70;55.00;;;;;;20790;6822;117566;-75
2023/07/19 05:37:31;;;;;;;6.47;5.97;;;22.70;55.00;;;;;;20788;6822;117426;-76
2023/07/19 05:39:56;;;;;;;6.32;5.80;;;22.60;55.40;;;;;;20780;6822;117563;-76
2023/07/19 05:42:22;;;;;;;7.60;6.40;;;22.40;55.60;;;;;;20759;6822;117652;-75
2023/07/19 05:44:47;;;;;;;7.17;6.43;;;22.30;55.70;;;;;;20781;6822;117221;-76
2023/07/19 05:47:17;;;;;;;7.97;7.27;;;22.50;55.50;;;;;;20577;6822;276999;-75
2023/07/19 05:49:43;;;;;;;6.83;6.17;;;22.50;55.50;;;;;;20782;6822;120150;-74
2023/07/19 05:52:08;;;;;;;7.97;7.10;;;22.60;55.20;;;;;;20548;6822;307349;-76
2023/07/19 05:54:34;;;;;;;4.93;4.53;;;22.90;54.30;;;;;;20779;6822;117169;-76
2023/07/19 05:56:59;;;;;;;6.23;5.67;;;23.00;54.20;;;;;;20761;6822;117692;-76
2023/07/19 05:59:25;;;;;;;6.93;6.32;;;23.10;54.50;;;;;;20506;6822;308077;-75
2023/07/19 06:01:50;;;;;;;6.53;6.00;;;23.50;53.60;;;;;;20759;6822;116956;-75
2023/07/19 06:04:17;;;;;;;5.73;5.23;;;23.60;53.50;;;;;;20731;6822;117717;-76
2023/07/19 06:06:44;;;;;;;6.50;5.83;;;23.50;53.40;;;;;;20571;6822;307819;-76
2023/07/19 06:09:10;;;;;;;6.35;5.75;;;23.90;52.50;;;;;;20585;6822;297287;-79
2023/07/19 06:11:36;;;;;;;6.50;6.00;;;24.30;51.60;;;;;;20613;6822;277056;-80
2023/07/19 06:14:01;;;;;;;6.50;6.00;;;24.70;51.50;;;;;;20600;6822;302350;-79
2023/07/19 06:16:27;;;;;;;8.10;5.53;;;25.10;50.20;;;;;;20804;6822;118623;-79
2023/07/19 06:18:53;;;;;;;6.00;5.50;;;25.00;50.30;;;;;;20624;6822;297915;-79
2023/07/19 06:21:19;;;;;;;6.53;5.60;;;25.20;49.90;;;;;;20620;6822;306719;-79
2023/07/19 06:23:44;;;;;;;7.03;5.30;;;25.60;49.30;;;;;;20838;6822;119654;-80
2023/07/19 06:26:10;;;;;;;6.45;5.72;;;25.60;49.60;;;;;;20596;6822;275539;-81
2023/07/19 06:28:35;;;;;;;5.87;5.20;;;25.70;48.70;;;;;;20602;6822;311507;-78
2023/07/19 06:31:01;;;;;;;5.40;4.93;;;26.10;48.20;;;;;;20820;6822;116127;-78
2023/07/19 06:33:26;;;;;;;6.03;5.53;;;26.30;49.80;;;;;;20617;6820;280003;-77
2023/07/19 06:35:52;;;;;;;6.30;4.90;;;26.90;47.40;;;;;;20834;6821;118154;-78
2023/07/19 06:38:18;;;;;;;5.85;5.28;;;27.20;47.70;;;;;;20601;6822;308410;-77
2023/07/19 06:40:43;;;;;;;5.83;5.33;;;27.80;46.10;;;;;;20618;6822;308358;-78
2023/07/19 06:43:09;;;;;;;6.32;5.62;;;28.60;44.50;;;;;;20621;6822;309833;-77
2023/07/19 06:45:34;;;;;;;7.87;5.67;;;29.30;43.30;;;;;;20864;6822;116473;-77
2023/07/19 06:48:00;;;;;;;5.63;5.20;;;29.50;43.60;;;;;;20628;6822;278114;-77
2023/07/19 06:50:25;;;;;;;4.97;4.68;;;29.90;42.00;;;;;;20807;6822;145071;-77
2023/07/19 06:52:51;;;;;;;5.60;5.10;;;30.00;42.40;;;;;;20594;6822;277087;-79
2023/07/19 06:55:17;;;;;;;6.10;5.30;;;30.20;40.60;;;;;;20815;6822;116974;-80
2023/07/19 06:57:42;;;;;;;6.67;5.17;;;30.30;41.30;;;;;;20808;6822;117014;-80
2023/07/19 07:00:08;;;;;;;5.47;4.90;;;30.20;41.50;;;;;;20800;6822;120111;-79
2023/07/19 07:02:33;;;;;;;4.97;4.67;;;30.10;41.90;;;;;;20812;6822;117294;-78
2023/07/19 07:05:00;;;;;;;5.10;4.60;;;30.20;41.50;;;;;;20821;6822;116660;-78
2023/07/19 07:07:25;;;;;;;5.23;4.93;;;30.20;41.50;;;;;;20818;6822;117098;-78
2023/07/19 07:09:51;;;;;;;4.93;4.53;;;30.20;41.10;;;;;;20821;6822;117205;-78
2023/07/19 07:12:17;;;;;;;4.70;4.40;;;30.20;41.00;;;;;;20789;6822;119205;-78
2023/07/19 07:14:42;;;;;;;5.30;4.90;;;30.30;41.10;;;;;;20597;6822;305125;-78
2023/07/19 07:17:09;;;;;;;5.83;4.73;;;30.90;39.30;;;;;;20798;6822;117102;-78
2023/07/19 07:19:34;;;;;;;4.83;4.43;;;30.90;39.30;;;;;;20810;6822;117675;-79
2023/07/19 07:22:00;;;;;;;9.07;5.23;;;30.50;40.00;;;;;;20819;6822;119668;-77
2023/07/19 07:24:26;;;;;;;5.70;4.97;;;30.50;39.90;;;;;;20579;6822;306423;-78
2023/07/19 07:26:52;;;;;;;5.30;4.80;;;30.80;39.70;;;;;;20813;6822;117500;-79
2023/07/19 07:29:18;;;;;;;5.30;4.87;;;30.70;39.20;;;;;;20815;6822;117355;-78
2023/07/19 07:31:43;;;;;;;5.23;4.73;;;30.60;39.60;;;;;;20557;6822;280570;-78
2023/07/19 07:34:09;;;;;;;6.97;4.93;;;30.90;39.10;;;;;;20575;6822;315304;-78
2023/07/19 07:36:34;;;;;;;6.20;5.00;;;31.30;38.30;;;;;;20574;6822;310480;-78
2023/07/19 07:39:00;;;;;;;7.27;4.43;;;31.60;37.90;;;;;;20821;6822;117092;-78
2023/07/19 07:41:27;;;;;;;7.45;4.80;;;31.50;37.80;;;;;;20605;6822;281427;-78
2023/07/19 07:43:52;;;;;;;5.37;4.87;;;31.50;37.80;;;;;;20812;6820;118809;-78
2023/07/19 07:46:18;;;;;;;5.75;4.72;;;31.40;38.10;;;;;;20591;6821;305940;-77
2023/07/19 07:48:44;;;;;;;4.80;4.50;;;31.50;37.70;;;;;;20820;6821;117636;-77
2023/07/19 07:51:09;;;;;;;5.00;4.60;;;31.40;38.00;;;;;;20595;6822;310562;-78
2023/07/19 07:53:35;;;;;;;7.90;4.80;;;31.50;37.20;;;;;;20805;6822;117746;-77
2023/07/19 07:56:00;;;;;;;4.60;4.30;;;31.40;37.70;;;;;;20823;6822;119985;-78
2023/07/19 07:58:26;;;;;;;5.75;4.87;;;31.20;37.70;;;;;;20586;6822;310682;-78
2023/07/19 08:00:51;;;;;;;5.03;4.67;;;31.30;38.00;;;;;;20829;6822;120333;-78
2023/07/19 08:03:17;;;;;;;6.90;4.27;;;31.30;38.20;;;;;;20819;6822;122974;-78
2023/07/19 08:05:43;;;;;;;5.87;4.35;;;31.10;39.00;;;;;;20606;6822;278863;-77
2023/07/19 08:08:09;;;;;;;4.70;4.40;;;31.20;37.80;;;;;;20788;6822;117133;-78
2023/07/19 08:10:41;;;;;;;5.27;4.13;;;31.20;37.40;;;;;;20824;6822;66819;-78
2023/07/19 08:13:06;;;;;;;7.60;3.73;;;31.10;37.30;;;;;;20802;6822;117542;-78
2023/07/19 08:15:32;;;;;;;7.13;3.77;;;30.80;36.80;;;;;;20803;6822;117070;-78
2023/07/19 08:17:57;;;;;;;4.78;4.05;;;30.80;37.40;;;;;;20604;6822;277847;-78
2023/07/19 08:20:24;;;;;;;4.20;3.80;;;31.10;36.60;;;;;;20800;6822;120098;-81
2023/07/19 08:22:49;;;;;;;4.27;3.87;;;31.10;36.50;;;;;;20581;6822;301003;-79
2023/07/19 08:25:16;;;;;;;4.50;4.10;;;31.50;37.00;;;;;;20583;6822;335018;-79
2023/07/19 08:27:40;;;;;;;4.63;3.93;;;31.90;34.80;;;;;;20570;6822;336513;-79
2023/07/19 08:30:09;;;;;;;4.73;3.93;;;32.30;34.70;;;;;;20586;6822;290641;-78
2023/07/19 08:32:33;;;;;;;5.83;3.67;;;32.70;33.30;;;;;;20552;6822;311226;-78
2023/07/19 08:34:57;;;;;;;3.83;3.43;;;32.90;32.60;;;;;;20787;6822;117101;-78
2023/07/19 08:37:23;;;;;;;3.80;3.40;;;32.80;33.40;;;;;;20802;6822;116998;-78
2023/07/19 08:39:48;;;;;;;4.10;3.13;;;32.50;34.40;;;;;;20795;6822;117252;-79
2023/07/19 08:42:14;;;;;;;3.95;2.47;;;32.40;34.50;;;;;;20571;6822;277783;-79
2023/07/19 08:44:40;;;;;;;4.87;2.27;;;32.70;31.10;;;;;;20795;6822;117242;-78
2023/07/19 08:47:05;;;;;;;4.57;2.03;;;32.80;30.80;;;;;;20578;6822;307345;-78
2023/07/19 08:49:31;;;;;;;6.50;2.20;;;33.10;28.90;;;;;;20577;6822;308527;-79
2023/07/19 08:51:56;;;;;;;4.78;2.22;;;33.40;28.00;;;;;;20568;6822;306878;-78
2023/07/19 08:54:22;;;;;;;4.63;2.00;;;33.70;27.00;;;;;;20768;6820;125844;-78
2023/07/19 08:56:47;;;;;;;5.20;2.07;;;33.60;27.80;;;;;;20584;6821;310355;-78
2023/07/19 08:59:13;;;;;;;3.87;2.07;;;33.70;26.90;;;;;;20575;6821;277384;-79
2023/07/19 09:01:38;;;;;;;2.43;1.77;;;33.90;27.00;;;;;;20789;6822;116933;-79
2023/07/19 09:04:09;;;;;;;3.80;1.97;;;33.90;27.20;;;;;;20796;6822;117509;-78
2023/07/19 09:06:34;;;;;;;5.57;2.20;;;33.60;27.20;;;;;;20593;6822;277589;-78
2023/07/19 09:08:59;;;;;;;3.60;2.10;;;33.60;26.40;;;;;;20589;6822;306468;-78
2023/07/19 09:11:24;;;;;;;3.17;1.90;;;33.60;26.30;;;;;;20565;6822;290053;-78
2023/07/19 09:13:54;;;;;;;3.67;2.05;;;33.70;26.10;;;;;;20577;6822;308301;-78
2023/07/19 09:16:27;;;;;;;3.33;2.20;;;33.60;27.30;;;;;;20765;6822;117073;-79
2023/07/19 09:18:54;;;;;;;2.47;1.80;;;33.50;27.30;;;;;;20782;6822;117539;-78
2023/07/19 09:21:32;;;;;;;10.37;2.03;;;33.40;27.80;;;;;;20782;6822;117054;-78
2023/07/19 09:23:58;;;;;;;8.40;2.50;;;33.20;27.50;;;;;;20578;6822;282099;-79
2023/07/19 09:26:23;;;;;;;5.35;2.10;;;33.20;27.20;;;;;;20560;6822;277745;-78
2023/07/19 09:28:49;;;;;;;2.58;2.10;;;33.30;26.40;;;;;;20576;6822;311177;-78
2023/07/19 09:31:15;;;;;;;2.87;2.30;;;33.40;26.80;;;;;;20780;6822;117014;-78
2023/07/19 09:33:40;;;;;;;6.65;1.92;;;33.20;27.50;;;;;;20587;6822;305005;-78
2023/07/19 09:36:06;;;;;;;2.50;1.80;;;33.30;27.50;;;;;;20788;6822;118823;-78
2023/07/19 09:38:32;;;;;;;3.70;2.07;;;33.30;27.50;;;;;;20553;6822;308162;-78
2023/07/19 09:40:58;;;;;;;2.43;1.97;;;33.50;26.20;;;;;;20806;6822;117489;-76
2023/07/19 09:43:23;;;;;;;4.33;1.83;;;33.50;26.50;;;;;;20793;6822;119213;-77
2023/07/19 09:45:49;;;;;;;4.47;2.20;;;33.30;26.70;;;;;;20575;6822;335434;-79
2023/07/19 09:48:17;;;;;;;5.73;2.10;;;33.40;26.50;;;;;;20517;6822;336571;-78
2023/07/19 09:50:43;;;;;;;3.77;1.80;;;33.60;26.20;;;;;;20776;6822;117245;-79
2023/07/19 09:53:11;;;;;;;3.40;2.00;;;33.40;26.50;;;;;;20784;6822;116214;-79
2023/07/19 09:55:37;;;;;;;2.23;2.00;;;33.10;26.60;;;;;;20575;6822;293526;-77
2023/07/19 09:58:04;;;;;;;3.30;2.00;;;33.10;26.60;;;;;;20557;6822;297848;-77
2023/07/19 10:00:30;;;;;;;4.07;2.10;;;33.20;26.20;;;;;;20755;6822;118221;-77
2023/07/19 10:02:57;;;;;;;4.57;1.93;;;32.90;26.80;;;;;;20784;6822;117104;-77
2023/07/19 10:05:26;;;;;;;2.20;2.00;;;32.60;27.30;;;;;;20544;6822;276580;-77
2023/07/19 10:07:51;;;;;;;3.73;1.90;;;32.60;26.80;;;;;;20779;6820;117097;-77
2023/07/19 10:10:17;;;;;;;3.40;2.20;;;32.50;27.00;;;;;;20554;6821;278091;-77
2023/07/19 10:12:47;;;;;;;3.53;2.17;;;32.90;28.30;;;;;;20581;6821;277053;-77
2023/07/19 10:15:14;;;;;;;7.37;2.50;;;32.80;28.00;;;;;;20789;6822;123397;-77
2023/07/19 10:17:49;;;;;;;3.07;2.20;;;32.80;27.30;;;;;;20774;6822;117627;-77
2023/07/19 10:20:16;;;;;;;3.25;2.20;;;32.70;28.00;;;;;;20523;6822;335434;-76
2023/07/19 10:22:44;;;;;;;4.47;2.47;;;32.70;28.00;;;;;;20778;6822;119521;-76
2023/07/19 10:25:10;;;;;;;3.07;2.80;;;32.80;28.20;;;;;;20564;6822;306572;-76
2023/07/19 10:27:35;;;;;;;5.00;2.57;;;32.90;28.40;;;;;;20772;6822;117246;-77
2023/07/19 10:30:04;;;;;;;4.50;2.87;;;33.00;28.90;;;;;;20780;6822;119603;-78
2023/07/19 10:32:30;;;;;;;2.90;2.53;;;32.90;29.40;;;;;;20758;6822;124121;-76
2023/07/19 10:34:56;;;;;;;5.30;2.77;;;33.00;29.10;;;;;;20568;6822;307295;-78
2023/07/19 10:37:22;;;;;;;5.97;2.95;;;33.30;28.10;;;;;;20574;6822;292082;-77
2023/07/19 10:39:47;;;;;;;3.43;2.77;;;33.70;27.90;;;;;;20785;6822;117249;-78
2023/07/19 10:42:12;;;;;;;3.35;2.83;;;33.80;28.40;;;;;;20552;6822;313371;-76
2023/07/19 10:44:39;;;;;;;3.93;2.90;;;34.00;28.40;;;;;;20819;6822;117622;-79
2023/07/19 10:47:05;;;;;;;3.50;2.80;;;34.10;28.40;;;;;;20848;6822;66586;-79
2023/07/19 10:49:31;;;;;;;7.03;2.97;;;34.00;28.40;;;;;;20814;6822;117145;-80
2023/07/19 10:51:57;;;;;;;5.70;2.67;;;34.00;29.20;;;;;;20828;6822;116109;-77
2023/07/19 10:54:22;;;;;;;4.77;2.50;;;34.00;28.70;;;;;;20785;6822;118239;-77
2023/07/19 10:56:51;;;;;;;4.73;2.80;;;34.10;28.70;;;;;;20607;6822;304304;-77
2023/07/19 10:59:17;;;;;;;4.97;2.57;;;34.40;28.40;;;;;;20815;6822;116108;-79
2023/07/19 11:01:44;;;;;;;6.15;2.90;;;34.70;27.80;;;;;;20586;6822;307954;-76
2023/07/19 11:04:11;;;;;;;5.07;3.13;;;35.00;26.50;;;;;;20554;6822;277434;-77
2023/07/19 11:06:36;;;;;;;4.63;3.47;;;35.40;27.20;;;;;;20577;6822;281482;-77
2023/07/19 11:09:02;;;;;;;3.27;2.90;;;35.70;26.60;;;;;;20795;6822;117035;-78
2023/07/19 11:11:27;;;;;;;3.87;2.80;;;35.70;26.30;;;;;;20790;6822;119586;-76
2023/07/19 11:13:53;;;;;;;6.80;3.07;;;35.40;26.40;;;;;;20804;6822;116609;-77
2023/07/19 11:16:18;;;;;;;7.20;3.20;;;35.10;26.90;;;;;;20789;6822;119246;-78
2023/07/19 11:18:47;;;;;;;5.03;3.00;;;34.80;27.20;;;;;;20484;6820;336298;-77
2023/07/19 11:21:15;;;;;;;6.33;3.33;;;34.80;26.90;;;;;;20730;6821;116981;-77
2023/07/19 11:23:41;;;;;;;6.73;3.47;;;34.70;27.40;;;;;;20699;6821;117748;-76
2023/07/19 11:26:07;;;;;;;5.40;3.47;;;34.60;28.10;;;;;;20562;6822;306468;-76
2023/07/19 11:28:35;;;;;;;5.23;3.50;;;34.90;27.70;;;;;;20532;6822;286441;-77
2023/07/19 11:31:02;;;;;;;3.40;3.10;;;34.90;27.70;;;;;;20741;6822;116997;-77
2023/07/19 11:33:26;;;;;;;3.53;3.23;;;34.90;27.20;;;;;;20755;6822;117279;-77
2023/07/19 11:35:52;;;;;;;6.20;3.60;;;34.80;27.30;;;;;;20550;6822;305802;-76
2023/07/19 11:38:17;;;;;;;4.80;3.10;;;34.80;26.80;;;;;;20768;6822;120287;-76
2023/07/19 11:40:44;;;;;;;4.80;3.50;;;34.80;26.90;;;;;;20574;6822;278017;-76
2023/07/19 11:43:09;;;;;;;3.47;3.17;;;34.80;26.90;;;;;;20793;6822;117076;-76
2023/07/19 11:45:35;;;;;;;5.03;3.53;;;34.90;27.40;;;;;;20760;6822;121953;-76
2023/07/19 11:48:04;;;;;;;6.23;3.43;;;34.70;27.30;;;;;;20767;6822;120892;-76
2023/07/19 11:50:30;;;;;;;5.23;3.30;;;34.40;27.30;;;;;;20736;6822;117541;-76
2023/07/19 11:52:56;;;;;;;3.60;3.30;;;34.10;27.20;;;;;;20551;6822;335715;-76
2023/07/19 11:55:24;;;;;;;3.90;3.50;;;34.20;26.80;;;;;;20778;6822;119268;-76
2023/07/19 11:58:02;;;;;;;3.97;3.57;;;34.10;26.90;;;;;;20777;6822;117324;-76
2023/07/19 12:00:25;;;;;;;3.87;3.43;;;33.90;27.40;;;;;;20546;6822;302635;-76
2023/07/19 12:02:51;;;;;;;3.70;3.40;;;34.00;27.00;;;;;;20555;6822;306934;-76
2023/07/19 12:05:16;;;;;;;3.72;3.42;;;34.30;26.00;;;;;;20543;6822;307629;-77
2023/07/19 12:07:42;;;;;;;3.40;3.20;;;34.60;26.60;;;;;;20745;6822;119716;-76
2023/07/19 12:10:07;;;;;;;4.47;3.33;;;34.50;26.20;;;;;;20767;6822;117504;-76
2023/07/19 12:12:33;;;;;;;3.93;3.63;;;34.20;26.50;;;;;;20549;6822;306860;-76
2023/07/19 12:14:59;;;;;;;5.60;3.70;;;34.70;26.80;;;;;;20558;6822;307835;-76
2023/07/19 12:17:25;;;;;;;4.95;3.67;;;34.60;26.60;;;;;;20560;6822;297697;-76
2023/07/19 12:19:52;;;;;;;3.80;3.22;;;34.80;26.50;;;;;;20549;6822;284732;-76
2023/07/19 12:22:16;;;;;;;3.33;3.13;;;35.00;25.70;;;;;;20683;6822;120599;-77
2023/07/19 12:24:42;;;;;;;3.67;3.37;;;34.70;25.90;;;;;;20533;6822;307165;-77
2023/07/19 12:27:07;;;;;;;3.63;3.33;;;34.60;25.50;;;;;;20558;6822;310030;-79
2023/07/19 12:29:34;;;;;;;4.17;3.60;;;34.60;24.70;;;;;;20545;6820;314922;-77